Time;durP1;ratioP1;P1;durP2;ratioP2;P2;SDS_P1;SDS_P2;PMS_P1;PMS_P2;Temp;Humidity;BMP_temperature;BMP_pressure;BME280_temperature;BME280_humidity;BME280_pressure;Samples;Min_cycle;Max_cycle;Signal;HPM_P1;HPM_P2
2022/11/20 00:01:07;;;;;;;55.15;33.58;;;282.20;2278.40;;;;;;6244808;23;20418;-81
2022/11/20 00:03:34;;;;;;;53.03;34.78;;;282.20;2278.40;;;;;;6244777;23;20008;-81
2022/11/20 00:06:01;;;;;;;34.78;25.40;;;282.20;2278.40;;;;;;6244417;23;20036;-81
2022/11/20 00:08:27;;;;;;;36.58;26.83;;;282.20;2278.40;;;;;;6244589;23;20004;-82
2022/11/20 00:10:52;;;;;;;47.50;36.45;;;282.10;2278.40;;;;;;6246126;23;20677;-81
2022/11/20 00:13:18;;;;;;;46.15;34.83;;;282.00;2278.40;;;;;;6247460;23;19996;-83
2022/11/20 00:15:44;;;;;;;63.38;46.53;;;282.20;2278.40;;;;;;6246516;23;20011;-82
2022/11/20 00:18:10;;;;;;;80.82;54.05;;;282.20;2278.40;;;;;;6246766;23;20028;-81
2022/11/20 00:20:36;;;;;;;73.22;49.35;;;282.10;2278.40;;;;;;6246484;23;20007;-80
2022/11/20 00:23:01;;;;;;;69.30;45.95;;;282.10;2278.40;;;;;;6246789;23;20023;-82
2022/11/20 00:25:27;;;;;;;74.70;49.80;;;282.10;2278.40;;;;;;6246387;23;20095;-82
2022/11/20 00:27:53;;;;;;;75.28;49.95;;;282.10;2278.40;;;;;;6246590;23;20046;-81
2022/11/20 00:30:19;;;;;;;63.33;43.72;;;282.10;2278.40;;;;;;6246739;23;20004;-81
2022/11/20 00:32:44;;;;;;;53.65;38.03;;;282.10;2278.40;;;;;;6246736;23;20004;-82
2022/11/20 00:35:10;;;;;;;48.00;36.55;;;282.10;2278.40;;;;;;6262662;22;19988;-82
2022/11/20 00:37:36;;;;;;;51.25;36.75;;;282.10;2278.40;;;;;;6275017;22;20150;-83
2022/11/20 00:40:04;;;;;;;44.53;33.75;;;282.00;2278.40;;;;;;6249378;22;20016;-81
2022/11/20 00:42:32;;;;;;;50.85;35.55;;;282.10;2278.40;;;;;;6221702;23;20057;-82
2022/11/20 00:44:58;;;;;;;48.08;37.40;;;282.10;2278.40;;;;;;6221991;23;20012;-82
2022/11/20 00:47:24;;;;;;;50.30;37.13;;;282.10;2278.40;;;;;;6221730;23;20321;-83
2022/11/20 00:49:49;;;;;;;47.60;37.00;;;282.10;2278.40;;;;;;6221452;23;20004;-83
2022/11/20 00:52:15;;;;;;;55.70;41.33;;;282.10;2278.40;;;;;;6221411;23;20000;-82
2022/11/20 00:54:41;;;;;;;60.95;42.83;;;282.10;2278.40;;;;;;6221597;23;20008;-83
2022/11/20 00:57:07;;;;;;;67.13;46.60;;;282.10;2278.40;;;;;;6221588;23;20039;-82
2022/11/20 00:59:32;;;;;;;69.47;48.70;;;282.10;2278.40;;;;;;6221554;23;20046;-83
2022/11/20 01:01:58;;;;;;;66.50;48.45;;;282.10;2278.40;;;;;;6221107;23;20000;-81
2022/11/20 01:04:24;;;;;;;58.63;41.65;;;282.00;2278.40;;;;;;6221431;23;20090;-83
2022/11/20 01:06:50;;;;;;;54.83;38.10;;;282.00;2278.40;;;;;;6221431;23;20046;-82
2022/11/20 01:09:16;;;;;;;43.25;33.92;;;282.10;2278.40;;;;;;6221263;23;20049;-80
2022/11/20 01:11:43;;;;;;;43.53;34.50;;;282.10;2278.40;;;;;;6221449;23;20325;-84
2022/11/20 01:14:18;;;;;;;47.45;35.15;;;282.00;2278.40;;;;;;6220691;23;20065;-82
2022/11/20 01:16:48;;;;;;;48.72;36.13;;;282.00;2278.40;;;;;;6221394;23;20004;-82
2022/11/20 01:19:16;;;;;;;46.90;33.88;;;281.90;2278.40;;;;;;6220534;23;20142;-82
2022/11/20 01:21:43;;;;;;;44.58;34.67;;;282.00;2278.40;;;;;;6248081;23;20123;-82
2022/11/20 01:24:15;;;;;;;40.78;30.48;;;281.90;2278.40;;;;;;6220587;23;20008;-83
2022/11/20 01:26:43;;;;;;;47.00;35.60;;;282.00;2278.40;;;;;;6222371;23;20317;-83
2022/11/20 01:29:18;;;;;;;44.80;32.22;;;281.90;2278.40;;;;;;6222248;23;20421;-82
2022/11/20 01:31:44;;;;;;;49.38;35.42;;;282.00;2278.40;;;;;;6222155;23;20004;-82
2022/11/20 01:34:13;;;;;;;46.97;33.45;;;282.00;2278.40;;;;;;6222029;23;20008;-83
2022/11/20 01:36:40;;;;;;;44.22;33.83;;;282.10;2278.40;;;;;;6220864;23;20414;-85
2022/11/20 01:39:12;;;;;;;42.08;32.60;;;282.00;2278.40;;;;;;6237816;23;20016;-83
2022/11/20 01:44:51;;;;;;;43.80;34.03;;;282.00;2278.40;;;;;;6250979;23;20325;-82
2022/11/20 01:47:40;;;;;;;46.13;33.63;;;281.90;2278.40;;;;;;6250920;23;20039;-83
2022/11/20 01:50:16;;;;;;;40.67;31.25;;;281.90;2278.40;;;;;;6249033;23;20099;-83
2022/11/20 01:52:49;;;;;;;47.28;35.80;;;281.80;2278.40;;;;;;6249042;23;20004;-82
2022/11/20 01:55:23;;;;;;;46.88;33.95;;;282.00;2278.40;;;;;;6249826;23;20008;-83
2022/11/20 01:57:49;;;;;;;44.50;34.00;;;281.90;2278.40;;;;;;6249085;23;20008;-81
2022/11/20 02:00:18;;;;;;;50.50;37.88;;;281.90;2278.40;;;;;;6246175;23;20038;-84
2022/11/20 02:02:53;;;;;;;50.05;34.55;;;281.90;2278.40;;;;;;6246119;23;20000;-83
2022/11/20 02:05:41;;;;;;;70.53;45.67;;;281.80;2278.40;;;;;;6245807;23;20004;-81
2022/11/20 02:08:07;;;;;;;61.63;42.92;;;282.00;2278.40;;;;;;6246296;23;20419;-81
2022/11/20 02:10:35;;;;;;;72.00;47.20;;;282.00;2278.40;;;;;;6246156;23;19996;-82
2022/11/20 02:15:46;;;;;;;83.45;52.05;;;282.00;2278.40;;;;;;6247412;23;20015;-82
2022/11/20 02:18:15;;;;;;;89.03;58.45;;;282.00;2278.40;;;;;;6247502;22;20004;-83
2022/11/20 02:20:45;;;;;;;84.05;55.13;;;282.10;2278.40;;;;;;6245573;23;19996;-85
2022/11/20 02:23:39;;;;;;;89.82;57.50;;;282.00;2278.40;;;;;;6245829;23;20069;-84
2022/11/20 02:26:08;;;;;;;80.68;51.42;;;282.10;2278.40;;;;;;6247218;22;20011;-83
2022/11/20 02:28:35;;;;;;;65.95;46.25;;;282.10;2278.40;;;;;;6245895;23;19997;-83
2022/11/20 02:31:01;;;;;;;61.80;45.13;;;282.10;2278.40;;;;;;6245906;23;20004;-85
2022/11/20 02:33:27;;;;;;;61.63;42.75;;;282.20;2278.40;;;;;;6247092;22;20004;-82
2022/11/20 02:35:52;;;;;;;59.55;43.85;;;282.10;2278.40;;;;;;6245326;23;20004;-82
2022/11/20 02:38:19;;;;;;;75.05;49.33;;;282.20;2278.40;;;;;;6245227;23;20016;-81
2022/11/20 02:40:45;;;;;;;72.30;49.40;;;282.10;2278.40;;;;;;6244238;23;20039;-84
2022/11/20 02:43:10;;;;;;;63.28;44.10;;;282.10;2278.40;;;;;;6247157;23;19997;-82
2022/11/20 02:45:36;;;;;;;50.65;38.13;;;282.00;2278.40;;;;;;6247263;23;20339;-82
2022/11/20 02:48:02;;;;;;;56.05;40.92;;;282.10;2278.40;;;;;;6245223;23;20000;-83
2022/11/20 02:50:28;;;;;;;56.97;43.05;;;282.10;2278.40;;;;;;6245719;23;20007;-82
2022/11/20 02:52:54;;;;;;;52.15;36.65;;;282.10;2278.40;;;;;;6245249;23;19996;-82
2022/11/20 02:55:20;;;;;;;46.53;34.15;;;282.10;2278.40;;;;;;6246605;23;20010;-81
2022/11/20 02:57:45;;;;;;;51.88;35.67;;;282.00;2278.40;;;;;;6245714;23;20006;-80
2022/11/20 03:00:12;;;;;;;51.47;36.15;;;282.00;2278.40;;;;;;6245548;23;20011;-81
2022/11/20 03:02:38;;;;;;;48.53;32.45;;;282.00;2278.40;;;;;;6246829;22;19992;-79
2022/11/20 03:05:04;;;;;;;49.63;33.63;;;282.10;2278.40;;;;;;6245330;23;20008;-82
2022/11/20 03:07:29;;;;;;;47.05;32.72;;;282.10;2278.40;;;;;;6244239;23;20047;-79
2022/11/20 03:09:55;;;;;;;39.38;29.90;;;282.10;2278.40;;;;;;6245038;23;20010;-80
2022/11/20 03:12:21;;;;;;;44.17;29.67;;;282.20;2278.40;;;;;;6245918;23;19996;-81
2022/11/20 03:14:46;;;;;;;49.00;35.58;;;282.20;2278.40;;;;;;6245124;23;20008;-79
2022/11/20 03:17:12;;;;;;;46.30;34.22;;;282.10;2278.40;;;;;;6247047;23;19996;-81
2022/11/20 03:19:38;;;;;;;44.67;32.63;;;282.10;2278.40;;;;;;6245449;23;20000;-80
2022/11/20 03:22:04;;;;;;;44.05;31.45;;;282.10;2278.40;;;;;;6245152;23;20487;-83
2022/11/20 03:24:29;;;;;;;43.85;29.42;;;282.10;2278.40;;;;;;6245240;23;20005;-81
2022/11/20 03:26:55;;;;;;;33.08;23.77;;;282.10;2278.40;;;;;;6245321;23;20000;-82
2022/11/20 03:29:21;;;;;;;34.53;24.20;;;282.10;2278.40;;;;;;6245127;23;20418;-82
2022/11/20 03:31:47;;;;;;;36.30;24.35;;;282.20;2278.40;;;;;;6245161;23;20004;-80
2022/11/20 03:34:13;;;;;;;38.60;27.38;;;282.20;2278.40;;;;;;6245260;23;20004;-81
2022/11/20 03:36:40;;;;;;;40.90;28.20;;;282.20;2278.40;;;;;;6245014;23;20001;-82
2022/11/20 03:39:06;;;;;;;38.33;25.33;;;282.20;2278.40;;;;;;6245086;23;20438;-81
2022/11/20 03:41:37;;;;;;;28.30;21.98;;;282.20;2278.40;;;;;;6246944;22;20070;-83
2022/11/20 03:44:06;;;;;;;31.35;23.75;;;282.20;2278.40;;;;;;6246465;22;19996;-81
2022/11/20 03:46:32;;;;;;;35.20;26.88;;;282.30;2278.40;;;;;;6244799;23;20003;-82
2022/11/20 03:48:58;;;;;;;41.50;32.05;;;282.40;2278.40;;;;;;6246305;22;19996;-81
2022/11/20 03:51:26;;;;;;;40.83;29.77;;;282.40;2278.40;;;;;;6244801;23;19996;-82
2022/11/20 03:53:54;;;;;;;40.00;28.88;;;282.40;2278.40;;;;;;6246821;22;20000;-80
2022/11/20 03:56:23;;;;;;;36.38;28.55;;;282.30;2278.40;;;;;;6246805;22;19996;-81
2022/11/20 03:58:50;;;;;;;41.92;32.00;;;282.20;2278.40;;;;;;6244627;23;20358;-81
2022/11/20 04:01:21;;;;;;;37.03;27.00;;;282.30;2278.40;;;;;;6246612;22;20298;-81
2022/11/20 04:03:48;;;;;;;35.67;25.83;;;282.40;2278.40;;;;;;6244811;23;20426;-81
2022/11/20 04:06:25;;;;;;;41.08;30.27;;;282.40;2278.40;;;;;;6244871;23;20008;-82
2022/11/20 04:08:51;;;;;;;43.28;29.90;;;282.30;2278.40;;;;;;6245279;23;20004;-84
2022/11/20 04:11:19;;;;;;;41.08;27.05;;;282.20;2278.40;;;;;;6244845;23;20000;-81
2022/11/20 04:13:52;;;;;;;35.47;26.27;;;282.20;2278.40;;;;;;6246296;22;19997;-80
2022/11/20 04:16:19;;;;;;;32.78;24.85;;;282.20;2278.40;;;;;;6245019;23;20330;-83
2022/11/20 04:18:45;;;;;;;34.58;25.25;;;282.30;2278.40;;;;;;6244855;22;20029;-81
2022/11/20 04:21:11;;;;;;;39.63;28.05;;;282.30;2278.40;;;;;;6245112;23;20000;-80
2022/11/20 04:23:37;;;;;;;39.88;29.65;;;282.30;2278.40;;;;;;6245115;23;20445;-82
2022/11/20 04:26:09;;;;;;;45.22;31.20;;;282.30;2278.40;;;;;;6246234;22;20011;-80
2022/11/20 04:28:35;;;;;;;41.05;28.70;;;282.20;2278.40;;;;;;6244788;23;19996;-81
2022/11/20 04:31:10;;;;;;;38.33;27.80;;;282.20;2278.40;;;;;;6245033;23;20000;-80
2022/11/20 04:33:37;;;;;;;34.28;26.10;;;282.30;2278.40;;;;;;6244726;23;20087;-82
2022/11/20 04:36:16;;;;;;;43.78;30.80;;;282.40;2278.40;;;;;;6245764;22;20000;-81
2022/11/20 04:38:43;;;;;;;35.22;26.55;;;282.40;2278.40;;;;;;6246384;22;20062;-82
2022/11/20 04:41:15;;;;;;;33.35;25.02;;;282.40;2278.40;;;;;;6245133;23;20039;-82
2022/11/20 04:43:41;;;;;;;35.25;26.38;;;282.50;2278.40;;;;;;6219805;23;20004;-81
2022/11/20 04:46:07;;;;;;;30.80;23.98;;;282.40;2278.40;;;;;;6219124;23;20516;-82
2022/11/20 04:48:34;;;;;;;39.63;28.95;;;282.50;2278.40;;;;;;6219512;23;20001;-81
2022/11/20 04:51:03;;;;;;;45.83;32.08;;;282.50;2278.40;;;;;;6219769;23;20000;-81
2022/11/20 04:53:29;;;;;;;41.85;29.83;;;282.50;2278.40;;;;;;6219265;23;20000;-81
2022/11/20 04:56:03;;;;;;;49.85;34.75;;;282.50;2278.40;;;;;;6219553;23;20333;-82
2022/11/20 04:58:29;;;;;;;42.38;32.45;;;282.50;2278.40;;;;;;6246731;23;20457;-82
2022/11/20 05:01:01;;;;;;;45.85;35.25;;;282.50;2278.40;;;;;;6220987;23;19996;-84
2022/11/20 05:03:27;;;;;;;;;;;282.50;2278.40;;;;;;6221957;23;20005;-82
2022/11/20 05:05:53;;;;;;;52.97;36.75;;;282.50;2278.40;;;;;;6248242;23;19914;-81
2022/11/20 05:08:18;;;;;;;53.65;38.50;;;282.40;2278.40;;;;;;6220733;23;20000;-81
2022/11/20 05:10:44;;;;;;;60.20;42.28;;;282.50;2278.40;;;;;;6248217;23;20000;-80
2022/11/20 05:13:10;;;;;;;52.63;37.50;;;282.50;2278.40;;;;;;6221383;23;20011;-82
2022/11/20 05:15:36;;;;;;;44.22;33.67;;;282.50;2278.40;;;;;;6220542;23;20338;-82
2022/11/20 05:18:02;;;;;;;42.00;31.92;;;282.50;2278.40;;;;;;6220858;23;20091;-81
2022/11/20 05:20:27;;;;;;;37.85;28.33;;;282.50;2278.40;;;;;;6220857;23;20070;-80
2022/11/20 05:22:57;;;;;;;37.67;26.45;;;282.50;2278.40;;;;;;6221089;23;20000;-82
2022/11/20 05:25:23;;;;;;;38.65;29.65;;;282.50;2278.40;;;;;;6220986;23;20018;-84
2022/11/20 05:27:48;;;;;;;45.83;31.15;;;282.50;2278.40;;;;;;6247581;23;20036;-81
2022/11/20 05:30:14;;;;;;;36.85;26.30;;;282.50;2278.40;;;;;;6247688;23;20000;-81
2022/11/20 05:32:40;;;;;;;35.80;27.10;;;282.50;2278.40;;;;;;6221182;23;20004;-84
2022/11/20 05:35:06;;;;;;;35.47;23.52;;;307.20;2304.00;;;;;;6220659;23;20396;-81
2022/11/20 05:37:32;;;;;;;42.00;28.45;;;307.20;2304.00;;;;;;6220678;23;20011;-80
2022/11/20 05:39:58;;;;;;;39.42;28.80;;;307.20;2304.00;;;;;;6220938;23;20004;-81
2022/11/20 05:42:30;;;;;;;36.60;26.60;;;307.20;2304.00;;;;;;6220560;23;20054;-80
2022/11/20 05:44:56;;;;;;;33.78;24.95;;;307.30;2304.00;;;;;;6220904;23;20031;-81
2022/11/20 05:47:22;;;;;;;44.33;31.02;;;307.40;2304.00;;;;;;6220784;23;20000;-81
2022/11/20 05:49:48;;;;;;;54.35;38.92;;;307.30;2304.00;;;;;;6220416;23;20429;-81
2022/11/20 05:52:14;;;;;;;52.78;37.40;;;307.30;2304.00;;;;;;6220774;23;20000;-81
2022/11/20 05:54:39;;;;;;;61.22;44.03;;;307.30;2304.00;;;;;;6220744;23;20032;-81
2022/11/20 05:57:05;;;;;;;69.35;48.83;;;307.30;2304.00;;;;;;6220538;23;20010;-82
2022/11/20 05:59:31;;;;;;;69.00;45.42;;;307.30;2304.00;;;;;;6220740;23;20537;-81
2022/11/20 06:01:57;;;;;;;57.28;41.38;;;307.30;2304.00;;;;;;6220763;23;20046;-81
2022/11/20 06:04:22;;;;;;;37.00;26.67;;;307.30;2304.00;;;;;;6220289;23;20013;-81
2022/11/20 06:06:48;;;;;;;37.60;26.27;;;307.30;2304.00;;;;;;6220791;23;19996;-82
2022/11/20 06:09:14;;;;;;;33.85;24.85;;;307.30;2304.00;;;;;;6220702;23;20000;-81
2022/11/20 06:11:40;;;;;;;35.60;27.65;;;307.30;2304.00;;;;;;6220115;23;20011;-81
2022/11/20 06:14:06;;;;;;;33.58;24.38;;;307.30;2304.00;;;;;;6220606;23;20000;-82
2022/11/20 06:16:32;;;;;;;34.45;25.00;;;307.30;2304.00;;;;;;6220284;23;20030;-82
2022/11/20 06:18:57;;;;;;;31.25;22.77;;;307.40;2304.00;;;;;;6220524;23;20008;-80
2022/11/20 06:21:23;;;;;;;33.63;23.95;;;307.40;2304.00;;;;;;6220616;23;20003;-81
2022/11/20 06:23:50;;;;;;;31.17;22.23;;;307.40;2304.00;;;;;;6247083;23;20055;-82
2022/11/20 06:26:22;;;;;;;31.13;23.15;;;307.50;2304.00;;;;;;6220447;23;20012;-80
2022/11/20 06:28:48;;;;;;;49.00;32.33;;;307.50;2304.00;;;;;;6220479;23;20004;-82
2022/11/20 06:31:16;;;;;;;55.03;37.03;;;307.50;2304.00;;;;;;6246594;23;20071;-81
2022/11/20 06:33:43;;;;;;;65.95;43.08;;;307.50;2304.00;;;;;;6247292;23;20000;-82
2022/11/20 06:36:11;;;;;;;53.00;36.22;;;307.50;2304.00;;;;;;6247340;23;20005;-82
2022/11/20 06:38:38;;;;;;;38.72;27.15;;;307.50;2304.00;;;;;;6230552;23;20016;-82
2022/11/20 06:41:15;;;;;;;37.22;27.17;;;307.50;2304.00;;;;;;6245443;23;20004;-82
2022/11/20 06:43:41;;;;;;;38.30;28.13;;;307.50;2304.00;;;;;;6245887;23;19996;-81
2022/11/20 06:46:09;;;;;;;37.30;29.13;;;307.50;2304.00;;;;;;6245383;23;20012;-82
2022/11/20 06:48:35;;;;;;;34.20;26.77;;;307.60;2304.00;;;;;;6245570;23;20000;-82
2022/11/20 06:51:04;;;;;;;36.80;28.08;;;307.60;2304.00;;;;;;6245693;23;20000;-81
2022/11/20 06:53:30;;;;;;;38.72;30.05;;;307.60;2304.00;;;;;;6245280;23;19997;-80
2022/11/20 06:55:57;;;;;;;35.28;28.92;;;307.70;2304.00;;;;;;6245747;23;20087;-82
2022/11/20 06:58:26;;;;;;;41.75;29.50;;;307.70;2304.00;;;;;;6245783;23;20004;-82
2022/11/20 07:00:51;;;;;;;37.22;32.53;;;307.70;2304.00;;;;;;6245433;23;20066;-83
2022/11/20 07:03:17;;;;;;;50.00;35.95;;;307.70;2304.00;;;;;;6245692;23;20008;-83
2022/11/20 07:05:44;;;;;;;51.65;36.67;;;307.70;2304.00;;;;;;6246398;23;20004;-83
2022/11/20 07:08:12;;;;;;;35.78;27.55;;;307.70;2304.00;;;;;;6245443;23;20083;-81
2022/11/20 07:10:38;;;;;;;28.25;22.42;;;307.60;2304.00;;;;;;6245476;23;20000;-81
2022/11/20 07:13:04;;;;;;;37.97;27.20;;;307.70;2304.00;;;;;;6244505;23;20445;-82
2022/11/20 07:15:30;;;;;;;51.35;32.38;;;307.80;2304.00;;;;;;6245770;23;20054;-82
2022/11/20 07:17:59;;;;;;;84.32;49.03;;;307.80;2304.00;;;;;;6245780;22;19996;-80
2022/11/20 07:20:25;;;;;;;91.80;58.60;;;307.80;2304.00;;;;;;6246437;22;20027;-83
2022/11/20 07:22:55;;;;;;;91.93;60.15;;;307.90;2304.00;;;;;;6246278;23;19996;-82
2022/11/20 07:25:21;;;;;;;65.70;39.80;;;307.90;2304.00;;;;;;6246854;22;20005;-82
2022/11/20 07:27:47;;;;;;;53.13;36.15;;;307.90;2304.00;;;;;;6246598;22;20365;-79
2022/11/20 07:30:14;;;;;;;90.88;51.58;;;307.90;2304.00;;;;;;6245263;23;20007;-81
2022/11/20 07:32:39;;;;;;;97.35;55.13;;;307.90;2304.00;;;;;;6245136;23;20010;-82
2022/11/20 07:35:06;;;;;;;108.47;63.17;;;307.90;2304.00;;;;;;6245026;23;20449;-81
2022/11/20 07:37:34;;;;;;;165.73;91.03;;;307.90;2304.00;;;;;;6246238;22;20425;-79
2022/11/20 07:40:00;;;;;;;200.20;111.45;;;307.90;2304.00;;;;;;6246832;23;20356;-80
2022/11/20 07:42:26;;;;;;;198.77;117.82;;;308.00;2304.00;;;;;;6219570;23;20090;-81
2022/11/20 07:44:52;;;;;;;137.52;87.80;;;308.00;2304.00;;;;;;6219194;23;20012;-79
2022/11/20 07:47:17;;;;;;;111.28;72.53;;;308.00;2304.00;;;;;;6219396;23;20058;-80
2022/11/20 07:49:43;;;;;;;112.10;76.78;;;308.00;2304.00;;;;;;6218237;23;20004;-80
2022/11/20 07:52:09;;;;;;;106.80;70.47;;;308.00;2304.00;;;;;;6219830;23;20012;-79
2022/11/20 07:54:34;;;;;;;105.75;76.88;;;308.10;2304.00;;;;;;6219441;23;20054;-79
2022/11/20 07:57:00;;;;;;;102.07;76.97;;;308.10;2304.00;;;;;;6219760;23;20003;-79
2022/11/20 07:59:26;;;;;;;90.00;65.10;;;308.10;2304.00;;;;;;6219697;23;20004;-79
2022/11/20 08:01:52;;;;;;;74.88;56.75;;;308.10;2304.00;;;;;;6219568;23;20001;-78
2022/11/20 08:04:17;;;;;;;60.22;47.88;;;308.10;2304.00;;;;;;6219781;23;20370;-78
2022/11/20 08:06:43;;;;;;;79.85;59.00;;;308.10;2304.00;;;;;;6219799;23;20054;-79
2022/11/20 08:09:09;;;;;;;68.93;48.33;;;308.10;2304.00;;;;;;6219415;23;20000;-79
2022/11/20 08:14:19;;;;;;;61.13;46.70;;;308.10;2304.00;;;;;;6246322;23;20092;-82
2022/11/20 08:16:49;;;;;;;58.97;46.28;;;308.10;2304.00;;;;;;6219527;23;19996;-81
2022/11/20 08:19:17;;;;;;;61.53;51.53;;;308.10;2304.00;;;;;;6219706;23;20091;-81
2022/11/20 08:21:43;;;;;;;61.80;49.55;;;308.10;2304.00;;;;;;6219802;23;19997;-79
2022/11/20 08:24:10;;;;;;;75.75;62.92;;;308.00;2304.00;;;;;;6219444;23;20000;-81
2022/11/20 08:26:37;;;;;;;60.30;48.72;;;308.10;2304.00;;;;;;6219609;23;20000;-80
2022/11/20 08:29:04;;;;;;;61.05;48.50;;;308.10;2304.00;;;;;;6219717;23;20000;-80
2022/11/20 08:31:31;;;;;;;66.07;52.85;;;332.80;2329.60;;;;;;6219600;23;20004;-81
2022/11/20 08:33:57;;;;;;;62.22;49.78;;;308.10;2304.00;;;;;;6220835;23;20000;-81
2022/11/20 08:36:24;;;;;;;63.83;52.20;;;308.10;2304.00;;;;;;6221743;23;20012;-81
2022/11/20 08:38:52;;;;;;;94.03;75.95;;;308.10;2304.00;;;;;;6234629;23;20058;-79
2022/11/20 08:41:23;;;;;;;162.25;136.18;;;308.00;2304.00;;;;;;6246968;23;20058;-82
2022/11/20 08:44:09;;;;;;;107.70;84.85;;;308.00;2304.00;;;;;;6246692;23;20035;-80
2022/11/20 08:46:40;;;;;;;88.85;72.25;;;308.10;2304.00;;;;;;6246012;23;20005;-79
2022/11/20 08:49:09;;;;;;;101.78;84.10;;;308.10;2304.00;;;;;;6248382;22;19996;-81
2022/11/20 08:51:36;;;;;;;83.05;66.25;;;308.10;2304.00;;;;;;6246639;23;20004;-80
2022/11/20 08:54:02;;;;;;;90.80;69.18;;;308.10;2304.00;;;;;;6248486;22;19993;-80
2022/11/20 08:56:28;;;;;;;83.88;64.53;;;332.80;2329.60;;;;;;6248325;22;20001;-78
2022/11/20 08:58:54;;;;;;;78.75;60.63;;;308.10;2304.00;;;;;;6246315;23;20000;-79
2022/11/20 09:01:21;;;;;;;84.82;64.15;;;332.80;2329.60;;;;;;6246731;23;20000;-78
2022/11/20 09:03:47;;;;;;;79.70;64.00;;;332.80;2329.60;;;;;;6246745;23;20009;-79
2022/11/20 09:06:13;;;;;;;89.32;71.82;;;332.80;2329.60;;;;;;6247877;22;20005;-78
2022/11/20 09:08:39;;;;;;;88.22;71.82;;;332.90;2329.60;;;;;;6248901;22;20000;-79
2022/11/20 09:11:06;;;;;;;112.47;94.95;;;332.90;2329.60;;;;;;6246688;23;20411;-80
2022/11/20 09:13:34;;;;;;;119.68;96.47;;;332.90;2329.60;;;;;;6246194;23;20004;-80
2022/11/20 09:16:05;;;;;;;138.85;112.68;;;332.90;2329.60;;;;;;6246734;23;20010;-82
2022/11/20 09:18:32;;;;;;;164.85;137.68;;;332.90;2329.60;;;;;;6247690;22;20023;-80
2022/11/20 09:21:02;;;;;;;184.38;150.77;;;332.90;2329.60;;;;;;6248101;22;20028;-78
2022/11/20 09:23:33;;;;;;;160.63;127.95;;;332.80;2329.60;;;;;;6247676;22;20430;-81
2022/11/20 09:26:02;;;;;;;170.05;133.15;;;332.80;2329.60;;;;;;6246212;23;20032;-79
2022/11/20 09:28:28;;;;;;;206.00;168.05;;;332.80;2329.60;;;;;;6247736;22;19996;-81
2022/11/20 09:30:54;;;;;;;224.43;177.88;;;332.90;2329.60;;;;;;6246667;23;20053;-79
2022/11/20 09:33:19;;;;;;;236.75;191.00;;;332.90;2329.60;;;;;;6246707;23;20007;-81
2022/11/20 09:35:45;;;;;;;212.63;172.43;;;332.90;2329.60;;;;;;6246819;23;20058;-81
2022/11/20 09:38:11;;;;;;;179.07;143.13;;;332.90;2329.60;;;;;;6246316;23;20016;-81
2022/11/20 09:40:44;;;;;;;227.05;181.00;;;332.80;2329.60;;;;;;6246107;23;19997;-80
2022/11/20 09:43:20;;;;;;;203.95;171.50;;;332.80;2329.60;;;;;;6247925;22;20027;-82
2022/11/20 09:46:26;;;;;;;173.30;148.82;;;332.80;2329.60;;;;;;6245821;23;20074;-81
2022/11/20 09:49:13;;;;;;;167.05;137.88;;;332.90;2329.60;;;;;;6163931;23;20000;-81
2022/11/20 09:51:58;;;;;;;116.72;96.25;;;332.90;2329.60;;;;;;6246093;23;20000;-82
2022/11/20 09:54:38;;;;;;;204.73;178.43;;;332.90;2329.60;;;;;;6246436;23;20004;-81
2022/11/20 09:57:09;;;;;;;165.27;137.38;;;332.90;2329.60;;;;;;6247891;22;20482;-82
2022/11/20 09:59:53;;;;;;;89.07;75.50;;;333.00;2329.60;;;;;;6246345;23;20023;-83
2022/11/20 10:02:37;;;;;;;174.80;155.45;;;332.90;2329.60;;;;;;6245941;23;20004;-81
2022/11/20 10:05:15;;;;;;;120.95;107.75;;;333.00;2329.60;;;;;;6246164;23;20012;-81
2022/11/20 10:08:08;;;;;;;109.82;95.40;;;333.00;2329.60;;;;;;6246016;23;20439;-81
2022/11/20 10:10:42;;;;;;;129.02;108.63;;;333.00;2329.60;;;;;;6246048;23;20000;-80
2022/11/20 10:13:14;;;;;;;143.00;117.60;;;333.00;2329.60;;;;;;6247824;22;20067;-79
2022/11/20 10:16:10;;;;;;;173.05;145.00;;;333.00;2329.60;;;;;;6245823;23;20004;-79
2022/11/20 10:18:48;;;;;;;148.40;121.95;;;333.10;2329.60;;;;;;6246047;23;20372;-81
2022/11/20 10:21:21;;;;;;;149.65;127.20;;;333.00;2329.60;;;;;;6245827;23;20024;-79
2022/11/20 10:24:10;;;;;;;171.25;139.15;;;333.00;2329.60;;;;;;6245714;23;20008;-82
2022/11/20 10:26:57;;;;;;;160.13;135.90;;;333.10;2329.60;;;;;;6246474;23;20058;-84
2022/11/20 10:29:33;;;;;;;160.93;137.23;;;333.00;2329.60;;;;;;6246222;23;19996;-81
2022/11/20 10:32:09;;;;;;;151.75;126.82;;;333.10;2329.60;;;;;;6245895;23;20004;-81
2022/11/20 10:34:44;;;;;;;157.00;137.20;;;333.00;2329.60;;;;;;6245776;23;20091;-81
2022/11/20 10:37:16;;;;;;;140.38;112.90;;;333.10;2329.60;;;;;;6245737;23;20135;-81
2022/11/20 10:39:50;;;;;;;115.13;92.25;;;333.00;2329.60;;;;;;6245624;23;20091;-81
2022/11/20 10:42:26;;;;;;;116.18;96.30;;;333.10;2329.60;;;;;;6246275;23;20005;-81
2022/11/20 10:45:01;;;;;;;82.45;69.20;;;333.10;2329.60;;;;;;6246201;23;20020;-82
2022/11/20 10:47:30;;;;;;;72.57;61.10;;;333.10;2329.60;;;;;;6245849;23;20004;-81
2022/11/20 10:50:01;;;;;;;65.47;53.92;;;333.10;2329.60;;;;;;6245400;23;20035;-82
2022/11/20 10:52:32;;;;;;;62.10;54.00;;;333.20;2329.60;;;;;;6246201;23;20027;-81
2022/11/20 10:55:20;;;;;;;70.40;58.95;;;333.10;2329.60;;;;;;6246107;23;20004;-82
2022/11/20 10:58:02;;;;;;;62.20;54.38;;;333.20;2329.60;;;;;;6245240;23;20000;-81
2022/11/20 11:00:31;;;;;;;53.47;43.92;;;333.20;2329.60;;;;;;6247467;22;20003;-82
2022/11/20 11:03:02;;;;;;;51.92;42.28;;;333.20;2329.60;;;;;;6247003;22;20073;-80
2022/11/20 11:05:51;;;;;;;56.38;46.15;;;333.20;2329.60;;;;;;6247110;23;20008;-81
2022/11/20 11:08:19;;;;;;;60.85;50.97;;;333.20;2329.60;;;;;;6246285;23;20460;-80
2022/11/20 11:10:58;;;;;;;98.13;72.43;;;333.20;2329.60;;;;;;6245334;23;20004;-81
2022/11/20 11:13:29;;;;;;;100.47;64.97;;;333.20;2329.60;;;;;;6245366;23;20035;-80
2022/11/20 11:15:56;;;;;;;106.57;66.80;;;333.10;2329.60;;;;;;6247158;22;20429;-80
2022/11/20 11:18:28;;;;;;;85.40;66.07;;;333.20;2329.60;;;;;;6245384;23;20000;-81
2022/11/20 11:20:56;;;;;;;81.32;67.60;;;333.20;2329.60;;;;;;6246991;22;20002;-82
2022/11/20 11:23:41;;;;;;;71.70;55.63;;;333.30;2329.60;;;;;;6244999;23;20010;-81
2022/11/20 11:26:21;;;;;;;71.00;58.45;;;333.30;2329.60;;;;;;6246972;22;20012;-81
2022/11/20 11:29:17;;;;;;;110.63;91.88;;;333.30;2329.60;;;;;;6246513;22;19996;-82
2022/11/20 11:31:42;;;;;;;94.20;76.93;;;333.20;2329.60;;;;;;6242557;23;20000;-82
2022/11/20 11:34:12;;;;;;;78.43;60.38;;;333.20;2329.60;;;;;;6245068;23;20004;-82
2022/11/20 11:36:39;;;;;;;66.68;53.17;;;333.20;2329.60;;;;;;6245810;22;20028;-82
2022/11/20 11:39:26;;;;;;;65.80;53.90;;;333.20;2329.60;;;;;;6244982;23;20020;-82
2022/11/20 11:41:53;;;;;;;48.67;39.03;;;333.20;2329.60;;;;;;6243888;23;20299;-83
2022/11/20 11:47:21;;;;;;;55.58;43.45;;;333.20;2329.60;;;;;;6246380;23;20014;-81
2022/11/20 11:49:47;;;;;;;73.15;58.85;;;333.20;2329.60;;;;;;6242845;23;20033;-82
2022/11/20 11:52:21;;;;;;;75.55;60.72;;;333.20;2329.60;;;;;;6244623;23;20004;-84
2022/11/20 11:54:54;;;;;;;80.97;63.17;;;333.20;2329.60;;;;;;6245434;23;20000;-82
2022/11/20 11:57:28;;;;;;;90.78;76.68;;;333.20;2329.60;;;;;;6244969;23;19996;-83
2022/11/20 12:00:21;;;;;;;89.38;75.95;;;333.20;2329.60;;;;;;6245287;23;20491;-82
2022/11/20 12:02:50;;;;;;;67.63;54.22;;;333.10;2329.60;;;;;;6246621;22;20023;-83
2022/11/20 12:05:21;;;;;;;68.50;56.20;;;333.10;2329.60;;;;;;6246427;23;20007;-83
2022/11/20 12:07:53;;;;;;;93.70;75.93;;;333.20;2329.60;;;;;;6244600;23;20295;-83
2022/11/20 12:10:21;;;;;;;81.97;65.35;;;333.10;2329.60;;;;;;6244724;23;20001;-83
2022/11/20 12:13:01;;;;;;;72.50;57.35;;;333.10;2329.60;;;;;;6244679;23;20000;-82
2022/11/20 12:15:33;;;;;;;123.45;87.05;;;333.20;2329.60;;;;;;6244932;22;20144;-83
2022/11/20 12:18:00;;;;;;;113.87;78.37;;;333.20;2329.60;;;;;;6244388;23;19996;-82